sensor_id;sensor_type;location;lat;lon;timestamp;P1;durP1;ratioP1;P2;durP2;ratioP2
21827;SDS011;11076;47.942;11.804;2023-09-12T00:04:58;8.02;;;7.05;;
21827;SDS011;11076;47.942;11.804;2023-09-12T00:10:01;9.10;;;7.65;;
21827;SDS011;11076;47.942;11.804;2023-09-12T00:15:04;8.15;;;7.35;;
21827;SDS011;11076;47.942;11.804;2023-09-12T00:20:07;7.70;;;6.95;;
21827;SDS011;11076;47.942;11.804;2023-09-12T00:25:10;9.00;;;6.85;;
21827;SDS011;11076;47.942;11.804;2023-09-12T00:30:14;8.50;;;7.50;;
21827;SDS011;11076;47.942;11.804;2023-09-12T00:35:17;9.18;;;7.47;;
21827;SDS011;11076;47.942;11.804;2023-09-12T00:40:20;10.48;;;7.03;;
21827;SDS011;11076;47.942;11.804;2023-09-12T00:45:22;8.65;;;6.80;;
21827;SDS011;11076;47.942;11.804;2023-09-12T00:50:24;12.68;;;7.57;;
21827;SDS011;11076;47.942;11.804;2023-09-12T00:55:28;8.23;;;6.78;;
21827;SDS011;11076;47.942;11.804;2023-09-12T01:00:33;7.90;;;6.55;;
21827;SDS011;11076;47.942;11.804;2023-09-12T01:05:36;8.45;;;7.18;;
21827;SDS011;11076;47.942;11.804;2023-09-12T01:10:39;8.25;;;7.05;;
21827;SDS011;11076;47.942;11.804;2023-09-12T01:15:42;10.70;;;6.90;;
21827;SDS011;11076;47.942;11.804;2023-09-12T01:20:51;10.20;;;7.05;;
21827;SDS011;11076;47.942;11.804;2023-09-12T01:31:40;10.65;;;7.85;;
21827;SDS011;11076;47.942;11.804;2023-09-12T01:36:43;8.05;;;7.05;;
21827;SDS011;11076;47.942;11.804;2023-09-12T01:41:46;9.82;;;7.35;;
21827;SDS011;11076;47.942;11.804;2023-09-12T01:46:51;10.27;;;7.63;;
21827;SDS011;11076;47.942;11.804;2023-09-12T01:51:55;9.10;;;8.00;;
21827;SDS011;11076;47.942;11.804;2023-09-12T01:56:58;9.93;;;7.72;;
21827;SDS011;11076;47.942;11.804;2023-09-12T02:02:02;9.55;;;8.13;;
21827;SDS011;11076;47.942;11.804;2023-09-12T02:07:04;10.30;;;8.15;;
21827;SDS011;11076;47.942;11.804;2023-09-12T02:12:07;13.45;;;7.70;;
21827;SDS011;11076;47.942;11.804;2023-09-12T02:17:11;9.98;;;8.05;;
21827;SDS011;11076;47.942;11.804;2023-09-12T02:22:13;9.90;;;8.15;;
21827;SDS011;11076;47.942;11.804;2023-09-12T02:27:16;8.63;;;7.55;;
21827;SDS011;11076;47.942;11.804;2023-09-12T02:32:18;15.20;;;7.90;;
21827;SDS011;11076;47.942;11.804;2023-09-12T02:37:21;11.68;;;8.02;;
21827;SDS011;11076;47.942;11.804;2023-09-12T02:42:24;11.70;;;8.13;;
21827;SDS011;11076;47.942;11.804;2023-09-12T02:47:27;8.98;;;7.93;;
21827;SDS011;11076;47.942;11.804;2023-09-12T02:52:29;9.15;;;8.13;;
21827;SDS011;11076;47.942;11.804;2023-09-12T02:57:32;9.27;;;7.90;;
21827;SDS011;11076;47.942;11.804;2023-09-12T03:02:34;15.52;;;9.00;;
21827;SDS011;11076;47.942;11.804;2023-09-12T03:07:37;11.82;;;8.63;;
21827;SDS011;11076;47.942;11.804;2023-09-12T03:12:40;9.57;;;7.90;;
21827;SDS011;11076;47.942;11.804;2023-09-12T03:17:43;12.70;;;8.60;;
21827;SDS011;11076;47.942;11.804;2023-09-12T03:22:46;8.27;;;7.38;;
21827;SDS011;11076;47.942;11.804;2023-09-12T03:27:48;12.30;;;8.18;;
21827;SDS011;11076;47.942;11.804;2023-09-12T03:32:51;12.85;;;7.78;;
21827;SDS011;11076;47.942;11.804;2023-09-12T03:37:53;8.63;;;7.72;;
21827;SDS011;11076;47.942;11.804;2023-09-12T03:42:56;8.77;;;7.75;;
21827;SDS011;11076;47.942;11.804;2023-09-12T03:47:59;9.82;;;7.70;;
21827;SDS011;11076;47.942;11.804;2023-09-12T03:53:01;8.35;;;7.45;;
21827;SDS011;11076;47.942;11.804;2023-09-12T03:58:04;10.75;;;7.65;;
21827;SDS011;11076;47.942;11.804;2023-09-12T04:03:07;10.68;;;7.15;;
21827;SDS011;11076;47.942;11.804;2023-09-12T04:08:10;9.50;;;7.07;;
21827;SDS011;11076;47.942;11.804;2023-09-12T04:13:12;9.73;;;7.10;;
21827;SDS011;11076;47.942;11.804;2023-09-12T04:18:14;11.63;;;7.57;;
21827;SDS011;11076;47.942;11.804;2023-09-12T04:23:17;10.35;;;7.25;;
21827;SDS011;11076;47.942;11.804;2023-09-12T04:28:20;10.05;;;8.30;;
21827;SDS011;11076;47.942;11.804;2023-09-12T04:33:22;10.40;;;7.43;;
21827;SDS011;11076;47.942;11.804;2023-09-12T04:38:25;9.20;;;7.47;;
21827;SDS011;11076;47.942;11.804;2023-09-12T04:43:29;12.30;;;8.00;;
21827;SDS011;11076;47.942;11.804;2023-09-12T04:48:31;11.55;;;8.38;;
21827;SDS011;11076;47.942;11.804;2023-09-12T04:53:34;11.65;;;8.27;;
21827;SDS011;11076;47.942;11.804;2023-09-12T04:58:38;11.88;;;8.35;;
21827;SDS011;11076;47.942;11.804;2023-09-12T05:03:41;9.73;;;7.45;;
21827;SDS011;11076;47.942;11.804;2023-09-12T05:08:43;8.15;;;7.13;;
21827;SDS011;11076;47.942;11.804;2023-09-12T05:13:46;10.80;;;7.55;;
21827;SDS011;11076;47.942;11.804;2023-09-12T05:18:49;15.65;;;7.72;;
21827;SDS011;11076;47.942;11.804;2023-09-12T05:23:51;10.93;;;7.70;;
21827;SDS011;11076;47.942;11.804;2023-09-12T05:28:54;14.60;;;8.13;;
21827;SDS011;11076;47.942;11.804;2023-09-12T05:33:56;8.18;;;7.20;;
21827;SDS011;11076;47.942;11.804;2023-09-12T05:38:59;13.02;;;8.20;;
21827;SDS011;11076;47.942;11.804;2023-09-12T05:44:02;11.88;;;7.72;;
21827;SDS011;11076;47.942;11.804;2023-09-12T05:49:06;13.18;;;7.55;;
21827;SDS011;11076;47.942;11.804;2023-09-12T05:54:10;9.27;;;7.93;;
21827;SDS011;11076;47.942;11.804;2023-09-12T05:59:15;10.32;;;7.53;;
21827;SDS011;11076;47.942;11.804;2023-09-12T06:04:18;12.68;;;8.15;;
21827;SDS011;11076;47.942;11.804;2023-09-12T06:09:21;9.68;;;7.65;;
21827;SDS011;11076;47.942;11.804;2023-09-12T06:14:23;10.57;;;7.63;;
21827;SDS011;11076;47.942;11.804;2023-09-12T06:19:26;8.23;;;6.95;;
21827;SDS011;11076;47.942;11.804;2023-09-12T06:24:28;13.25;;;7.72;;
21827;SDS011;11076;47.942;11.804;2023-09-12T06:29:30;9.30;;;7.30;;
21827;SDS011;11076;47.942;11.804;2023-09-12T06:34:33;8.07;;;7.25;;
21827;SDS011;11076;47.942;11.804;2023-09-12T06:39:35;8.13;;;6.95;;
21827;SDS011;11076;47.942;11.804;2023-09-12T06:44:38;8.18;;;7.32;;
21827;SDS011;11076;47.942;11.804;2023-09-12T06:49:40;11.68;;;7.72;;
21827;SDS011;11076;47.942;11.804;2023-09-12T06:54:42;9.32;;;6.97;;
21827;SDS011;11076;47.942;11.804;2023-09-12T06:59:45;7.40;;;6.70;;
21827;SDS011;11076;47.942;11.804;2023-09-12T07:04:50;11.07;;;7.40;;
21827;SDS011;11076;47.942;11.804;2023-09-12T07:09:52;8.45;;;7.03;;
21827;SDS011;11076;47.942;11.804;2023-09-12T07:14:57;8.88;;;7.07;;
21827;SDS011;11076;47.942;11.804;2023-09-12T07:19:59;11.57;;;6.72;;
21827;SDS011;11076;47.942;11.804;2023-09-12T07:25:01;20.45;;;7.25;;
21827;SDS011;11076;47.942;11.804;2023-09-12T07:30:05;12.40;;;7.18;;
21827;SDS011;11076;47.942;11.804;2023-09-12T07:35:09;7.80;;;6.90;;
21827;SDS011;11076;47.942;11.804;2023-09-12T07:40:12;9.75;;;7.55;;
21827;SDS011;11076;47.942;11.804;2023-09-12T07:45:14;16.73;;;7.95;;
21827;SDS011;11076;47.942;11.804;2023-09-12T07:50:16;10.52;;;7.63;;
21827;SDS011;11076;47.942;11.804;2023-09-12T07:55:19;12.07;;;8.45;;
21827;SDS011;11076;47.942;11.804;2023-09-12T08:00:21;10.93;;;8.35;;
21827;SDS011;11076;47.942;11.804;2023-09-12T08:05:24;12.48;;;8.98;;
21827;SDS011;11076;47.942;11.804;2023-09-12T08:10:26;16.30;;;9.00;;
21827;SDS011;11076;47.942;11.804;2023-09-12T08:15:28;11.40;;;8.38;;
21827;SDS011;11076;47.942;11.804;2023-09-12T08:20:32;10.93;;;9.80;;
21827;SDS011;11076;47.942;11.804;2023-09-12T08:25:35;14.32;;;8.30;;
21827;SDS011;11076;47.942;11.804;2023-09-12T08:30:37;9.80;;;8.10;;
21827;SDS011;11076;47.942;11.804;2023-09-12T08:35:39;14.10;;;8.15;;
21827;SDS011;11076;47.942;11.804;2023-09-12T08:40:47;12.57;;;8.23;;
21827;SDS011;11076;47.942;11.804;2023-09-12T08:45:53;10.85;;;8.45;;
21827;SDS011;11076;47.942;11.804;2023-09-12T08:56:05;15.20;;;8.50;;
21827;SDS011;11076;47.942;11.804;2023-09-12T09:01:08;9.45;;;7.50;;
21827;SDS011;11076;47.942;11.804;2023-09-12T09:06:13;8.80;;;7.50;;
21827;SDS011;11076;47.942;11.804;2023-09-12T09:11:18;12.23;;;8.35;;
21827;SDS011;11076;47.942;11.804;2023-09-12T09:16:20;8.32;;;7.50;;
21827;SDS011;11076;47.942;11.804;2023-09-12T09:21:24;9.18;;;7.85;;
21827;SDS011;11076;47.942;11.804;2023-09-12T09:32:03;11.82;;;8.05;;
21827;SDS011;11076;47.942;11.804;2023-09-12T09:37:08;11.90;;;8.25;;
21827;SDS011;11076;47.942;11.804;2023-09-12T09:42:12;8.57;;;7.53;;
21827;SDS011;11076;47.942;11.804;2023-09-12T09:47:14;11.73;;;8.30;;
21827;SDS011;11076;47.942;11.804;2023-09-12T09:52:24;9.93;;;9.00;;
21827;SDS011;11076;47.942;11.804;2023-09-12T09:57:27;8.95;;;7.50;;
21827;SDS011;11076;47.942;11.804;2023-09-12T10:02:29;12.95;;;7.32;;
21827;SDS011;11076;47.942;11.804;2023-09-12T10:07:32;9.93;;;8.00;;
21827;SDS011;11076;47.942;11.804;2023-09-12T10:12:35;7.78;;;6.97;;
21827;SDS011;11076;47.942;11.804;2023-09-12T10:17:39;8.73;;;6.72;;
21827;SDS011;11076;47.942;11.804;2023-09-12T10:22:52;9.70;;;6.97;;
21827;SDS011;11076;47.942;11.804;2023-09-12T10:28:03;9.43;;;6.72;;
21827;SDS011;11076;47.942;11.804;2023-09-12T10:33:07;8.80;;;6.60;;
21827;SDS011;11076;47.942;11.804;2023-09-12T10:38:10;9.40;;;6.70;;
21827;SDS011;11076;47.942;11.804;2023-09-12T10:43:16;12.85;;;6.90;;
21827;SDS011;11076;47.942;11.804;2023-09-12T10:48:18;10.18;;;8.60;;
21827;SDS011;11076;47.942;11.804;2023-09-12T10:53:21;10.55;;;7.30;;
21827;SDS011;11076;47.942;11.804;2023-09-12T10:58:26;9.93;;;7.13;;
21827;SDS011;11076;47.942;11.804;2023-09-12T11:08:35;9.55;;;7.38;;
21827;SDS011;11076;47.942;11.804;2023-09-12T11:13:39;13.85;;;9.18;;
21827;SDS011;11076;47.942;11.804;2023-09-12T11:24:25;12.18;;;8.60;;
21827;SDS011;11076;47.942;11.804;2023-09-12T11:29:34;11.80;;;7.95;;
21827;SDS011;11076;47.942;11.804;2023-09-12T11:34:42;12.27;;;8.40;;
21827;SDS011;11076;47.942;11.804;2023-09-12T11:39:46;9.35;;;8.13;;
21827;SDS011;11076;47.942;11.804;2023-09-12T11:44:49;10.02;;;8.07;;
21827;SDS011;11076;47.942;11.804;2023-09-12T11:49:53;9.52;;;8.50;;
21827;SDS011;11076;47.942;11.804;2023-09-12T11:54:55;14.23;;;8.10;;
21827;SDS011;11076;47.942;11.804;2023-09-12T11:59:58;12.07;;;7.93;;
21827;SDS011;11076;47.942;11.804;2023-09-12T12:05:00;10.15;;;7.85;;
21827;SDS011;11076;47.942;11.804;2023-09-12T12:10:03;8.65;;;7.85;;
21827;SDS011;11076;47.942;11.804;2023-09-12T12:15:15;11.32;;;8.05;;
21827;SDS011;11076;47.942;11.804;2023-09-12T12:20:18;12.65;;;7.68;;
21827;SDS011;11076;47.942;11.804;2023-09-12T12:25:20;8.80;;;7.68;;
21827;SDS011;11076;47.942;11.804;2023-09-12T12:30:24;13.37;;;8.60;;
21827;SDS011;11076;47.942;11.804;2023-09-12T12:35:26;9.13;;;7.97;;
21827;SDS011;11076;47.942;11.804;2023-09-12T12:40:29;9.50;;;8.20;;
21827;SDS011;11076;47.942;11.804;2023-09-12T12:45:33;8.45;;;7.45;;
21827;SDS011;11076;47.942;11.804;2023-09-12T12:50:37;10.27;;;7.97;;
21827;SDS011;11076;47.942;11.804;2023-09-12T12:55:40;12.10;;;7.60;;
21827;SDS011;11076;47.942;11.804;2023-09-12T13:00:43;8.82;;;7.93;;
21827;SDS011;11076;47.942;11.804;2023-09-12T13:05:46;12.18;;;8.73;;
21827;SDS011;11076;47.942;11.804;2023-09-12T13:10:48;9.68;;;8.68;;
21827;SDS011;11076;47.942;11.804;2023-09-12T13:15:51;10.70;;;8.38;;
21827;SDS011;11076;47.942;11.804;2023-09-12T13:20:53;13.95;;;8.55;;
21827;SDS011;11076;47.942;11.804;2023-09-12T13:25:56;10.40;;;8.63;;
21827;SDS011;11076;47.942;11.804;2023-09-12T13:30:59;9.32;;;8.07;;
21827;SDS011;11076;47.942;11.804;2023-09-12T13:36:01;9.77;;;8.20;;
21827;SDS011;11076;47.942;11.804;2023-09-12T13:41:04;8.95;;;7.72;;
21827;SDS011;11076;47.942;11.804;2023-09-12T13:46:07;11.50;;;8.63;;
21827;SDS011;11076;47.942;11.804;2023-09-12T13:51:12;13.60;;;10.60;;
21827;SDS011;11076;47.942;11.804;2023-09-12T13:56:15;11.90;;;8.77;;
21827;SDS011;11076;47.942;11.804;2023-09-12T14:01:17;13.65;;;8.25;;
21827;SDS011;11076;47.942;11.804;2023-09-12T14:06:29;12.07;;;9.50;;
21827;SDS011;11076;47.942;11.804;2023-09-12T14:11:32;13.80;;;8.65;;
21827;SDS011;11076;47.942;11.804;2023-09-12T14:16:36;12.48;;;9.10;;
21827;SDS011;11076;47.942;11.804;2023-09-12T14:21:38;11.30;;;8.38;;
21827;SDS011;11076;47.942;11.804;2023-09-12T14:26:42;12.57;;;9.45;;
21827;SDS011;11076;47.942;11.804;2023-09-12T14:31:45;10.88;;;9.13;;
21827;SDS011;11076;47.942;11.804;2023-09-12T14:36:56;14.10;;;9.27;;
21827;SDS011;11076;47.942;11.804;2023-09-12T14:41:58;12.65;;;9.10;;
21827;SDS011;11076;47.942;11.804;2023-09-12T14:47:03;15.75;;;9.68;;
21827;SDS011;11076;47.942;11.804;2023-09-12T14:52:06;9.27;;;8.32;;
21827;SDS011;11076;47.942;11.804;2023-09-12T14:57:13;12.07;;;9.20;;
21827;SDS011;11076;47.942;11.804;2023-09-12T15:02:15;10.30;;;8.50;;
21827;SDS011;11076;47.942;11.804;2023-09-12T15:07:17;11.05;;;8.40;;
21827;SDS011;11076;47.942;11.804;2023-09-12T15:12:20;12.10;;;8.45;;
21827;SDS011;11076;47.942;11.804;2023-09-12T15:17:22;19.20;;;14.00;;
21827;SDS011;11076;47.942;11.804;2023-09-12T15:22:24;12.52;;;9.07;;
21827;SDS011;11076;47.942;11.804;2023-09-12T15:27:27;12.60;;;10.48;;
21827;SDS011;11076;47.942;11.804;2023-09-12T15:32:31;12.23;;;8.70;;
21827;SDS011;11076;47.942;11.804;2023-09-12T15:37:33;11.32;;;10.02;;
21827;SDS011;11076;47.942;11.804;2023-09-12T15:42:35;11.00;;;7.70;;
21827;SDS011;11076;47.942;11.804;2023-09-12T15:47:38;11.35;;;8.38;;
21827;SDS011;11076;47.942;11.804;2023-09-12T15:52:41;10.57;;;8.23;;
21827;SDS011;11076;47.942;11.804;2023-09-12T15:57:44;12.23;;;8.48;;
21827;SDS011;11076;47.942;11.804;2023-09-12T16:02:46;17.75;;;8.85;;
21827;SDS011;11076;47.942;11.804;2023-09-12T16:07:52;9.25;;;8.15;;
21827;SDS011;11076;47.942;11.804;2023-09-12T16:12:55;16.23;;;7.97;;
21827;SDS011;11076;47.942;11.804;2023-09-12T16:17:57;9.48;;;7.95;;
21827;SDS011;11076;47.942;11.804;2023-09-12T16:23:00;13.25;;;8.82;;
21827;SDS011;11076;47.942;11.804;2023-09-12T16:28:02;10.07;;;8.25;;
21827;SDS011;11076;47.942;11.804;2023-09-12T16:33:05;13.55;;;7.95;;
21827;SDS011;11076;47.942;11.804;2023-09-12T16:38:07;11.75;;;8.02;;
21827;SDS011;11076;47.942;11.804;2023-09-12T16:43:09;11.88;;;8.55;;
21827;SDS011;11076;47.942;11.804;2023-09-12T16:48:12;11.57;;;8.30;;
21827;SDS011;11076;47.942;11.804;2023-09-12T16:53:14;12.13;;;8.55;;
21827;SDS011;11076;47.942;11.804;2023-09-12T16:58:19;13.40;;;8.60;;
21827;SDS011;11076;47.942;11.804;2023-09-12T17:03:21;15.40;;;9.48;;
21827;SDS011;11076;47.942;11.804;2023-09-12T17:08:24;15.20;;;9.05;;
21827;SDS011;11076;47.942;11.804;2023-09-12T17:13:26;15.13;;;11.50;;
21827;SDS011;11076;47.942;11.804;2023-09-12T17:18:29;19.17;;;9.93;;
21827;SDS011;11076;47.942;11.804;2023-09-12T17:23:34;10.30;;;8.65;;
21827;SDS011;11076;47.942;11.804;2023-09-12T17:28:37;13.70;;;8.88;;
21827;SDS011;11076;47.942;11.804;2023-09-12T17:33:39;11.25;;;8.93;;
21827;SDS011;11076;47.942;11.804;2023-09-12T17:38:42;17.70;;;10.48;;
21827;SDS011;11076;47.942;11.804;2023-09-12T17:43:44;12.93;;;10.05;;
21827;SDS011;11076;47.942;11.804;2023-09-12T17:48:47;12.23;;;9.30;;
21827;SDS011;11076;47.942;11.804;2023-09-12T17:53:49;15.40;;;8.98;;
21827;SDS011;11076;47.942;11.804;2023-09-12T17:58:52;16.35;;;8.73;;
21827;SDS011;11076;47.942;11.804;2023-09-12T18:03:54;10.73;;;8.50;;
21827;SDS011;11076;47.942;11.804;2023-09-12T18:08:57;14.10;;;8.60;;
21827;SDS011;11076;47.942;11.804;2023-09-12T18:13:59;12.07;;;8.73;;
21827;SDS011;11076;47.942;11.804;2023-09-12T18:19:02;13.23;;;8.77;;
21827;SDS011;11076;47.942;11.804;2023-09-12T18:24:04;11.93;;;8.77;;
21827;SDS011;11076;47.942;11.804;2023-09-12T18:29:07;12.35;;;9.55;;
21827;SDS011;11076;47.942;11.804;2023-09-12T18:34:09;11.45;;;8.80;;
21827;SDS011;11076;47.942;11.804;2023-09-12T18:39:12;12.25;;;9.70;;
21827;SDS011;11076;47.942;11.804;2023-09-12T18:44:14;12.93;;;10.20;;
21827;SDS011;11076;47.942;11.804;2023-09-12T18:49:17;16.50;;;10.98;;
21827;SDS011;11076;47.942;11.804;2023-09-12T18:54:22;11.57;;;9.35;;
21827;SDS011;11076;47.942;11.804;2023-09-12T18:59:25;17.73;;;9.10;;
21827;SDS011;11076;47.942;11.804;2023-09-12T19:04:28;6.38;;;5.05;;
21827;SDS011;11076;47.942;11.804;2023-09-12T19:09:35;8.25;;;5.65;;
21827;SDS011;11076;47.942;11.804;2023-09-12T19:14:38;11.02;;;5.05;;
21827;SDS011;11076;47.942;11.804;2023-09-12T19:19:40;7.05;;;5.20;;
21827;SDS011;11076;47.942;11.804;2023-09-12T19:24:42;7.68;;;4.90;;
21827;SDS011;11076;47.942;11.804;2023-09-12T19:29:49;7.13;;;5.43;;
21827;SDS011;11076;47.942;11.804;2023-09-12T19:34:53;9.23;;;5.72;;
21827;SDS011;11076;47.942;11.804;2023-09-12T19:39:55;8.80;;;5.78;;
21827;SDS011;11076;47.942;11.804;2023-09-12T19:44:58;7.20;;;6.20;;
21827;SDS011;11076;47.942;11.804;2023-09-12T19:50:00;12.18;;;6.53;;
21827;SDS011;11076;47.942;11.804;2023-09-12T19:55:03;14.38;;;6.40;;
21827;SDS011;11076;47.942;11.804;2023-09-12T20:00:06;7.78;;;6.13;;
21827;SDS011;11076;47.942;11.804;2023-09-12T20:05:09;11.27;;;4.93;;
21827;SDS011;11076;47.942;11.804;2023-09-12T20:10:12;13.45;;;6.22;;
21827;SDS011;11076;47.942;11.804;2023-09-12T20:15:14;6.55;;;5.13;;
21827;SDS011;11076;47.942;11.804;2023-09-12T20:20:16;6.25;;;3.65;;
21827;SDS011;11076;47.942;11.804;2023-09-12T20:25:20;8.20;;;3.42;;
21827;SDS011;11076;47.942;11.804;2023-09-12T20:30:23;4.53;;;3.60;;
21827;SDS011;11076;47.942;11.804;2023-09-12T20:35:26;3.50;;;2.90;;
21827;SDS011;11076;47.942;11.804;2023-09-12T20:40:29;8.70;;;2.80;;
21827;SDS011;11076;47.942;11.804;2023-09-12T20:45:33;3.08;;;2.25;;
21827;SDS011;11076;47.942;11.804;2023-09-12T20:50:36;3.15;;;2.40;;
21827;SDS011;11076;47.942;11.804;2023-09-12T20:55:39;6.05;;;2.88;;
21827;SDS011;11076;47.942;11.804;2023-09-12T21:00:41;5.38;;;2.53;;
21827;SDS011;11076;47.942;11.804;2023-09-12T21:05:45;4.85;;;2.97;;
21827;SDS011;11076;47.942;11.804;2023-09-12T21:10:48;3.30;;;2.92;;
21827;SDS011;11076;47.942;11.804;2023-09-12T21:15:50;4.07;;;3.33;;
21827;SDS011;11076;47.942;11.804;2023-09-12T21:20:53;5.05;;;3.47;;
21827;SDS011;11076;47.942;11.804;2023-09-12T21:25:55;6.55;;;3.78;;
21827;SDS011;11076;47.942;11.804;2023-09-12T21:30:59;5.25;;;3.72;;
21827;SDS011;11076;47.942;11.804;2023-09-12T21:36:01;5.57;;;3.25;;
21827;SDS011;11076;47.942;11.804;2023-09-12T21:41:04;5.47;;;3.75;;
21827;SDS011;11076;47.942;11.804;2023-09-12T21:46:07;5.60;;;3.72;;
21827;SDS011;11076;47.942;11.804;2023-09-12T21:51:10;9.43;;;4.35;;
21827;SDS011;11076;47.942;11.804;2023-09-12T21:56:12;7.07;;;3.75;;
21827;SDS011;11076;47.942;11.804;2023-09-12T22:01:15;10.38;;;3.95;;
21827;SDS011;11076;47.942;11.804;2023-09-12T22:06:18;6.07;;;3.92;;
21827;SDS011;11076;47.942;11.804;2023-09-12T22:11:20;4.60;;;3.45;;
21827;SDS011;11076;47.942;11.804;2023-09-12T22:16:23;6.13;;;3.92;;
21827;SDS011;11076;47.942;11.804;2023-09-12T22:21:25;6.82;;;3.95;;
21827;SDS011;11076;47.942;11.804;2023-09-12T22:26:27;6.18;;;3.85;;
21827;SDS011;11076;47.942;11.804;2023-09-12T22:31:30;6.50;;;3.70;;
21827;SDS011;11076;47.942;11.804;2023-09-12T22:36:33;5.68;;;3.50;;
21827;SDS011;11076;47.942;11.804;2023-09-12T22:41:36;6.50;;;3.60;;
21827;SDS011;11076;47.942;11.804;2023-09-12T22:46:38;6.60;;;3.47;;
21827;SDS011;11076;47.942;11.804;2023-09-12T22:51:40;5.45;;;3.60;;
21827;SDS011;11076;47.942;11.804;2023-09-12T22:56:43;4.38;;;3.08;;
21827;SDS011;11076;47.942;11.804;2023-09-12T23:01:45;10.45;;;4.30;;
21827;SDS011;11076;47.942;11.804;2023-09-12T23:06:48;5.82;;;3.40;;
21827;SDS011;11076;47.942;11.804;2023-09-12T23:11:50;4.70;;;3.67;;
21827;SDS011;11076;47.942;11.804;2023-09-12T23:16:53;6.38;;;4.53;;
21827;SDS011;11076;47.942;11.804;2023-09-12T23:21:55;6.55;;;4.53;;
21827;SDS011;11076;47.942;11.804;2023-09-12T23:26:57;4.15;;;3.58;;
21827;SDS011;11076;47.942;11.804;2023-09-12T23:32:00;6.03;;;4.60;;
21827;SDS011;11076;47.942;11.804;2023-09-12T23:37:02;5.72;;;3.95;;
21827;SDS011;11076;47.942;11.804;2023-09-12T23:42:05;5.32;;;3.13;;
21827;SDS011;11076;47.942;11.804;2023-09-12T23:47:07;7.07;;;3.60;;
21827;SDS011;11076;47.942;11.804;2023-09-12T23:52:09;8.00;;;4.25;;
21827;SDS011;11076;47.942;11.804;2023-09-12T23:57:12;7.25;;;4.13;;
